createdAt,value
2019-05-30T00:00:49.965Z,3.75
2019-05-30T00:03:54.266Z,4.72
2019-05-30T00:06:58.755Z,4.65
2019-05-30T00:10:03.208Z,5.72
2019-05-30T00:13:07.629Z,4.97
2019-05-30T00:16:11.921Z,4.42
2019-05-30T00:19:16.230Z,5.10
2019-05-30T00:22:20.601Z,3.90
2019-05-30T00:25:25.009Z,3.92
2019-05-30T00:28:29.373Z,3.98
2019-05-30T00:31:33.743Z,4.28
2019-05-30T00:34:38.121Z,4.45
2019-05-30T00:37:42.537Z,6.85
2019-05-30T00:40:47.238Z,6.05
2019-05-30T00:43:51.660Z,3.83
2019-05-30T00:46:56.123Z,4.15
2019-05-30T00:50:00.563Z,4.40
2019-05-30T00:53:05.393Z,4.60
2019-05-30T00:56:09.950Z,4.90
2019-05-30T00:59:14.338Z,3.83
2019-05-30T01:02:18.662Z,4.92
2019-05-30T01:05:22.955Z,5.72
2019-05-30T01:08:27.270Z,4.35
2019-05-30T01:11:31.659Z,5.40
2019-05-30T01:14:36.064Z,5.87
2019-05-30T01:17:40.361Z,6.30
2019-05-30T01:20:45.535Z,4.97
2019-05-30T01:23:49.850Z,4.58
2019-05-30T01:26:54.938Z,4.78
2019-05-30T01:29:59.573Z,6.12
2019-05-30T01:33:04.011Z,3.87
2019-05-30T01:36:08.330Z,4.22
2019-05-30T01:39:12.749Z,4.80
2019-05-30T01:42:17.204Z,5.35
2019-05-30T01:45:21.752Z,3.80
2019-05-30T01:48:26.039Z,4.67
2019-05-30T01:51:30.289Z,4.62
2019-05-30T01:54:34.614Z,5.58
2019-05-30T01:57:38.936Z,4.40
2019-05-30T02:00:43.304Z,5.33
2019-05-30T02:03:49.300Z,4.62
2019-05-30T02:06:53.742Z,5.22
2019-05-30T02:09:59.164Z,5.10
2019-05-30T02:13:03.523Z,5.95
2019-05-30T02:16:07.909Z,4.47
2019-05-30T02:19:12.259Z,4.42
2019-05-30T02:22:16.604Z,4.65
2019-05-30T02:25:20.889Z,3.90
2019-05-30T02:28:25.264Z,4.12
2019-05-30T02:31:39.129Z,3.50
2019-05-30T02:34:35.580Z,5.00
2019-05-30T02:37:39.970Z,4.90
2019-05-30T02:40:44.306Z,5.80
2019-05-30T02:43:48.679Z,4.08
2019-05-30T02:46:58.138Z,4.40
2019-05-30T02:50:04.391Z,4.92
2019-05-30T02:53:10.553Z,4.67
2019-05-30T02:56:14.517Z,3.87
2019-05-30T02:59:18.774Z,3.80
2019-05-30T03:02:23.131Z,5.60
2019-05-30T03:05:27.568Z,4.12
2019-05-30T03:08:31.854Z,6.28
2019-05-30T03:11:36.601Z,3.67
2019-05-30T03:14:40.900Z,3.00
2019-05-30T03:17:45.202Z,3.70
2019-05-30T03:20:49.491Z,4.35
2019-05-30T03:23:53.826Z,2.80
2019-05-30T03:26:58.194Z,3.55
2019-05-30T03:30:07.550Z,6.62
2019-05-30T03:33:24.383Z,3.65
2019-05-30T03:36:27.645Z,5.47
2019-05-30T03:39:20.635Z,3.75
2019-05-30T03:42:26.359Z,5.05
2019-05-30T03:45:32.579Z,4.85
2019-05-30T03:48:37.316Z,3.75
2019-05-30T03:51:43.569Z,5.08
2019-05-30T03:54:49.570Z,3.90
2019-05-30T03:58:00.236Z,3.45
2019-05-30T04:01:08.041Z,3.92
2019-05-30T04:04:20.595Z,3.98
2019-05-30T04:07:27.524Z,2.62
2019-05-30T04:10:36.469Z,2.85
2019-05-30T04:13:54.382Z,3.27
2019-05-30T04:16:58.988Z,5.15
2019-05-30T04:20:03.506Z,3.85
2019-05-30T04:23:08.478Z,3.77
2019-05-30T04:26:13.872Z,4.80
2019-05-30T04:29:19.047Z,3.30
2019-05-30T04:32:23.588Z,5.47
2019-05-30T04:35:27.951Z,3.30
2019-05-30T04:38:32.292Z,5.25
2019-05-30T04:41:37.987Z,5.28
2019-05-30T04:44:42.296Z,4.37
2019-05-30T04:47:46.568Z,3.50
2019-05-30T04:50:50.882Z,3.52
2019-05-30T04:53:55.166Z,4.15
2019-05-30T04:56:59.554Z,4.17
2019-05-30T05:00:04.614Z,3.45
2019-05-30T05:03:08.996Z,3.75
2019-05-30T05:06:13.789Z,4.20
2019-05-30T05:09:18.356Z,4.55
2019-05-30T05:12:23.560Z,3.90
2019-05-30T05:15:27.899Z,3.72
2019-05-30T05:18:32.306Z,4.15
2019-05-30T05:21:36.637Z,4.80
2019-05-30T05:24:40.912Z,4.53
2019-05-30T05:27:45.229Z,6.08
2019-05-30T05:30:49.663Z,3.35
2019-05-30T05:33:57.058Z,4.33
2019-05-30T05:37:00.308Z,5.55
2019-05-30T05:40:04.999Z,4.45
2019-05-30T05:43:09.199Z,3.05
2019-05-30T05:46:13.752Z,4.08
2019-05-30T05:49:18.414Z,4.42
2019-05-30T05:52:24.859Z,4.72
2019-05-30T05:55:29.218Z,4.20
2019-05-30T05:58:33.597Z,3.92
2019-05-30T06:01:37.883Z,3.72
2019-05-30T06:04:42.265Z,4.12
2019-05-30T06:07:46.623Z,6.28
2019-05-30T06:10:50.971Z,5.10
2019-05-30T06:13:55.228Z,11.60
2019-05-30T06:16:59.474Z,14.65
2019-05-30T06:20:03.891Z,14.50
2019-05-30T06:23:08.306Z,20.70
2019-05-30T06:26:12.582Z,8.18
2019-05-30T06:29:17.898Z,25.50
2019-05-30T06:32:22.916Z,26.93
2019-05-30T06:35:27.540Z,14.63
2019-05-30T06:38:31.900Z,8.05
2019-05-30T06:41:36.332Z,13.30
2019-05-30T06:44:40.778Z,10.70
2019-05-30T06:47:45.002Z,10.45
2019-05-30T06:50:49.217Z,9.53
2019-05-30T06:53:53.461Z,8.10
2019-05-30T06:56:57.959Z,7.17
2019-05-30T07:00:02.287Z,9.68
2019-05-30T07:03:06.677Z,9.35
2019-05-30T07:06:11.322Z,10.40
2019-05-30T07:09:16.000Z,12.33
2019-05-30T07:12:20.360Z,8.23
2019-05-30T07:15:25.093Z,13.28
2019-05-30T07:18:33.362Z,10.65
2019-05-30T07:21:35.581Z,13.28
2019-05-30T07:24:40.042Z,11.22
2019-05-30T07:27:44.310Z,11.63
2019-05-30T07:30:48.621Z,9.98
2019-05-30T07:33:52.988Z,11.57
2019-05-30T07:36:57.312Z,10.68
2019-05-30T07:40:01.783Z,10.03
2019-05-30T07:43:06.303Z,11.57
2019-05-30T07:46:10.731Z,9.83
2019-05-30T07:49:14.971Z,9.95
2019-05-30T07:52:19.252Z,14.85
2019-05-30T07:55:23.594Z,10.72
2019-05-30T07:58:28.996Z,8.85
2019-05-30T08:01:34.650Z,10.80
2019-05-30T08:04:38.979Z,10.98
2019-05-30T08:07:43.251Z,8.78
2019-05-30T08:10:47.632Z,21.10
2019-05-30T08:13:52.033Z,19.95
2019-05-30T08:16:56.363Z,16.35
2019-05-30T08:20:00.702Z,14.53
2019-05-30T08:23:05.005Z,16.15
2019-05-30T08:26:09.299Z,10.95
2019-05-30T08:29:13.584Z,12.15
2019-05-30T08:32:17.924Z,15.40
2019-05-30T08:35:22.320Z,11.43
2019-05-30T08:38:26.636Z,10.55
2019-05-30T08:41:31.163Z,13.08
2019-05-30T08:44:35.906Z,9.90
2019-05-30T08:47:40.864Z,9.68
2019-05-30T08:50:45.186Z,12.20
2019-05-30T08:53:49.486Z,9.55
2019-05-30T08:56:53.801Z,10.75
2019-05-30T08:59:58.324Z,10.95
2019-05-30T09:03:02.700Z,9.80
2019-05-30T09:06:06.983Z,8.75
2019-05-30T09:09:11.740Z,13.20
2019-05-30T09:12:16.105Z,9.58
2019-05-30T09:15:22.246Z,11.93
2019-05-30T09:18:26.758Z,11.38
2019-05-30T09:21:31.217Z,11.63
2019-05-30T09:24:35.517Z,9.88
2019-05-30T09:27:40.800Z,12.40
2019-05-30T09:30:46.506Z,14.03
2019-05-30T09:33:53.469Z,11.57
2019-05-30T09:36:57.679Z,9.93
2019-05-30T09:40:01.970Z,9.50
2019-05-30T09:43:06.292Z,11.53
2019-05-30T09:46:10.698Z,10.50
2019-05-30T09:49:15.130Z,11.03
2019-05-30T09:52:19.573Z,8.28
2019-05-30T09:55:24.247Z,10.20
2019-05-30T09:58:28.627Z,10.60
2019-05-30T10:01:32.994Z,11.85
2019-05-30T10:04:37.661Z,12.37
2019-05-30T10:07:43.544Z,11.35
2019-05-30T10:10:49.558Z,11.60
2019-05-30T10:13:53.984Z,9.98
2019-05-30T10:16:59.365Z,10.48
2019-05-30T10:20:04.327Z,11.30
2019-05-30T10:23:09.444Z,12.43
2019-05-30T10:26:14.649Z,12.95
2019-05-30T10:29:20.462Z,12.00
2019-05-30T10:32:25.702Z,7.70
2019-05-30T10:35:31.169Z,9.58
2019-05-30T10:38:35.372Z,11.70
2019-05-30T10:41:39.622Z,8.83
2019-05-30T10:44:43.897Z,14.35
2019-05-30T10:47:49.409Z,17.35
2019-05-30T10:50:54.458Z,12.98
2019-05-30T10:53:58.857Z,10.48
2019-05-30T10:57:03.060Z,9.40
2019-05-30T11:00:09.922Z,8.20
2019-05-30T11:03:14.398Z,9.20
2019-05-30T11:06:34.717Z,11.53
2019-05-30T11:09:44.012Z,10.48
2019-05-30T11:12:49.541Z,8.53
2019-05-30T11:15:55.499Z,9.78
2019-05-30T11:19:00.084Z,10.08
2019-05-30T11:22:04.604Z,8.38
2019-05-30T11:25:09.013Z,7.50
2019-05-30T11:28:13.339Z,9.75
2019-05-30T11:31:17.714Z,8.40
2019-05-30T11:34:22.330Z,7.28
2019-05-30T11:37:26.745Z,8.10
2019-05-30T11:40:31.007Z,8.05
2019-05-30T11:43:35.357Z,6.75
2019-05-30T11:46:39.652Z,9.70
2019-05-30T11:49:43.943Z,8.48
2019-05-30T11:52:49.736Z,6.42
2019-05-30T11:55:54.256Z,9.75
2019-05-30T11:58:58.842Z,6.80
2019-05-30T12:02:03.483Z,7.50
2019-05-30T12:05:08.785Z,9.80
2019-05-30T12:08:13.101Z,15.95
2019-05-30T12:11:17.396Z,9.48
2019-05-30T12:14:21.793Z,8.25
2019-05-30T12:17:26.100Z,5.90
2019-05-30T12:20:30.504Z,6.47
2019-05-30T12:23:34.702Z,6.37
2019-05-30T12:26:38.961Z,6.83
2019-05-30T12:29:43.243Z,11.10
2019-05-30T12:32:47.871Z,5.90
2019-05-30T12:35:52.442Z,8.55
2019-05-30T12:38:56.839Z,6.28
2019-05-30T12:42:01.293Z,11.18
2019-05-30T12:45:07.365Z,5.67
2019-05-30T12:48:12.260Z,5.83
2019-05-30T12:51:16.635Z,4.25
2019-05-30T12:54:21.036Z,3.70
2019-05-30T12:57:25.369Z,5.50
2019-05-30T13:00:30.527Z,2.90
2019-05-30T13:03:34.915Z,2.30
2019-05-30T13:06:39.238Z,2.33
2019-05-30T13:09:43.654Z,4.30
2019-05-30T13:12:47.936Z,3.40
2019-05-30T13:15:52.253Z,5.12
2019-05-30T13:18:57.907Z,2.17
2019-05-30T13:22:03.377Z,2.92
2019-05-30T13:25:09.354Z,4.83
2019-05-30T13:28:16.720Z,4.53
2019-05-30T13:31:21.156Z,9.90
2019-05-30T13:34:25.520Z,10.23
2019-05-30T13:37:29.896Z,13.60
2019-05-30T13:40:34.618Z,11.48
2019-05-30T13:43:39.163Z,4.90
2019-05-30T13:46:43.543Z,5.53
2019-05-30T13:49:47.752Z,4.80
2019-05-30T13:52:52.178Z,6.37
2019-05-30T13:55:56.394Z,5.58
2019-05-30T13:59:01.717Z,3.90
2019-05-30T14:02:06.410Z,10.43
2019-05-30T14:05:11.314Z,5.75
2019-05-30T14:08:16.714Z,4.53
2019-05-30T14:11:21.219Z,4.55
2019-05-30T14:14:25.569Z,13.60
2019-05-30T14:17:29.851Z,10.43
2019-05-30T14:20:34.141Z,7.70
2019-05-30T14:23:38.576Z,3.95
2019-05-30T14:26:42.858Z,3.10
2019-05-30T14:29:47.144Z,10.60
2019-05-30T14:32:51.348Z,2.67
2019-05-30T14:35:55.692Z,2.45
2019-05-30T14:38:59.937Z,2.95
2019-05-30T14:42:05.036Z,2.90
2019-05-30T14:45:10.710Z,2.92
2019-05-30T14:48:15.075Z,4.83
2019-05-30T14:51:19.405Z,5.62
2019-05-30T14:54:23.952Z,2.90
2019-05-30T14:57:28.333Z,2.02
2019-05-30T15:00:32.656Z,9.70
2019-05-30T15:03:36.915Z,7.83
2019-05-30T15:06:41.292Z,4.08
2019-05-30T15:09:45.553Z,3.40
2019-05-30T15:12:49.985Z,3.47
2019-05-30T15:15:56.979Z,9.45
2019-05-30T15:19:00.478Z,8.10
2019-05-30T15:22:05.561Z,11.85
2019-05-30T15:25:10.147Z,7.45
2019-05-30T15:28:14.433Z,3.83
2019-05-30T15:31:18.814Z,5.62
2019-05-30T15:34:23.095Z,6.65
2019-05-30T15:37:27.463Z,7.05
2019-05-30T15:40:31.741Z,5.92
2019-05-30T15:43:36.156Z,2.52
2019-05-30T15:46:40.363Z,5.10
2019-05-30T15:49:44.740Z,3.83
2019-05-30T15:52:49.745Z,4.30
2019-05-30T15:55:54.110Z,2.70
2019-05-30T15:58:58.396Z,2.72
2019-05-30T16:02:02.719Z,5.22
2019-05-30T16:05:07.340Z,3.80
2019-05-30T16:08:12.625Z,3.20
2019-05-30T16:11:17.078Z,5.55
2019-05-30T16:14:21.610Z,22.10
2019-05-30T16:17:26.434Z,6.35
2019-05-30T16:20:30.878Z,5.50
2019-05-30T16:23:35.173Z,6.25
2019-05-30T16:26:39.579Z,5.67
2019-05-30T16:29:43.896Z,2.50
2019-05-30T16:32:48.267Z,6.40
2019-05-30T16:35:52.766Z,3.40
2019-05-30T16:38:57.131Z,4.53
2019-05-30T16:42:01.464Z,3.12
2019-05-30T16:45:08.577Z,6.47
2019-05-30T16:48:14.277Z,2.92
2019-05-30T16:51:18.825Z,6.85
2019-05-30T16:54:23.432Z,4.97
2019-05-30T16:57:27.934Z,5.85
2019-05-30T17:00:32.298Z,4.65
2019-05-30T17:03:36.642Z,4.37
2019-05-30T17:06:40.941Z,3.90
2019-05-30T17:09:45.460Z,5.22
2019-05-30T17:12:53.402Z,2.75
2019-05-30T17:15:58.590Z,3.98
2019-05-30T17:19:03.657Z,4.05
2019-05-30T17:22:10.375Z,4.40
2019-05-30T17:25:15.148Z,3.58
2019-05-30T17:28:20.323Z,4.90
2019-05-30T17:31:26.070Z,5.10
2019-05-30T17:34:30.652Z,5.20
2019-05-30T17:37:35.075Z,3.47
2019-05-30T17:40:44.952Z,3.87
2019-05-30T17:43:45.416Z,3.70
2019-05-30T17:46:49.740Z,4.95
2019-05-30T17:49:54.117Z,4.97
2019-05-30T17:52:58.521Z,4.58
2019-05-30T17:56:02.878Z,4.22
2019-05-30T17:59:07.143Z,3.67
2019-05-30T18:02:11.940Z,3.10
2019-05-30T18:05:17.333Z,3.62
2019-05-30T18:08:22.739Z,3.60
2019-05-30T18:11:27.309Z,3.50
2019-05-30T18:14:31.597Z,3.72
2019-05-30T18:17:36.048Z,4.03
2019-05-30T18:20:48.455Z,3.55
2019-05-30T18:23:47.216Z,3.20
2019-05-30T18:26:51.608Z,2.92
2019-05-30T18:29:56.024Z,2.62
2019-05-30T18:33:00.253Z,3.17
2019-05-30T18:36:04.729Z,3.30
2019-05-30T18:39:09.014Z,2.95
2019-05-30T18:42:13.335Z,3.75
2019-05-30T18:45:21.000Z,4.03
2019-05-30T18:48:25.331Z,3.05
2019-05-30T18:51:30.355Z,3.75
2019-05-30T18:54:34.733Z,3.83
2019-05-30T18:57:39.017Z,3.72
2019-05-30T19:00:43.368Z,2.67
2019-05-30T19:03:47.720Z,2.77
2019-05-30T19:06:52.020Z,5.08
2019-05-30T19:09:56.401Z,3.27
2019-05-30T19:13:00.710Z,3.25
2019-05-30T19:16:04.954Z,4.00
2019-05-30T19:19:09.356Z,3.50
2019-05-30T19:22:13.736Z,2.90
2019-05-30T19:25:18.084Z,2.77
2019-05-30T19:28:22.365Z,2.17
2019-05-30T19:31:26.727Z,3.60
2019-05-30T19:34:31.104Z,2.72
2019-05-30T19:37:35.522Z,2.83
2019-05-30T19:40:39.821Z,2.75
2019-05-30T19:43:44.122Z,3.65
2019-05-30T19:46:51.215Z,11.78
2019-05-30T19:49:55.624Z,5.33
2019-05-30T19:53:00.018Z,6.85
2019-05-30T19:56:04.411Z,4.65
2019-05-30T19:59:08.619Z,6.65
2019-05-30T20:02:14.612Z,5.20
2019-05-30T20:05:22.221Z,11.57
2019-05-30T20:08:26.562Z,8.28
2019-05-30T20:11:30.907Z,9.58
2019-05-30T20:14:35.202Z,5.92
2019-05-30T20:17:39.858Z,9.00
2019-05-30T20:20:56.387Z,5.65
2019-05-30T20:23:56.571Z,6.35
2019-05-30T20:26:57.226Z,9.65
2019-05-30T20:30:01.483Z,5.90
2019-05-30T20:33:06.068Z,11.15
2019-05-30T20:36:10.427Z,6.87
2019-05-30T20:39:14.880Z,5.53
2019-05-30T20:42:19.898Z,5.97
2019-05-30T20:45:24.273Z,6.62
2019-05-30T20:48:28.630Z,7.05
2019-05-30T20:51:35.022Z,3.75
2019-05-30T20:54:39.522Z,5.75
2019-05-30T20:57:43.878Z,5.20
2019-05-30T21:00:48.383Z,5.53
2019-05-30T21:03:53.198Z,5.00
2019-05-30T21:06:58.560Z,7.83
2019-05-30T21:10:03.735Z,6.72
2019-05-30T21:13:08.113Z,4.22
2019-05-30T21:16:15.647Z,2.90
2019-05-30T21:19:19.917Z,4.75
2019-05-30T21:22:24.253Z,3.83
2019-05-30T21:25:28.541Z,3.05
2019-05-30T21:28:32.942Z,5.50
2019-05-30T21:31:37.380Z,5.35
2019-05-30T21:34:42.362Z,4.40
2019-05-30T21:37:47.893Z,3.90
2019-05-30T21:40:52.441Z,4.55
2019-05-30T21:43:56.849Z,3.70
2019-05-30T21:47:01.299Z,4.25
2019-05-30T21:50:06.379Z,4.08
2019-05-30T21:53:10.653Z,3.85
2019-05-30T21:56:15.218Z,4.70
2019-05-30T21:59:19.820Z,3.67
2019-05-30T22:02:24.079Z,3.83
2019-05-30T22:05:28.499Z,2.70
2019-05-30T22:08:32.790Z,3.30
2019-05-30T22:11:37.210Z,3.90
2019-05-30T22:14:41.792Z,3.65
2019-05-30T22:17:46.116Z,4.95
2019-05-30T22:20:50.403Z,2.87
2019-05-30T22:23:54.923Z,3.90
2019-05-30T22:26:59.161Z,2.70
2019-05-30T22:30:03.545Z,3.37
2019-05-30T22:33:07.800Z,4.15
2019-05-30T22:36:12.173Z,3.75
2019-05-30T22:39:16.395Z,3.27
2019-05-30T22:42:20.700Z,4.12
2019-05-30T22:45:24.901Z,4.00
2019-05-30T22:48:29.288Z,4.67
2019-05-30T22:51:33.575Z,2.85
2019-05-30T22:54:37.826Z,3.17
2019-05-30T22:57:42.292Z,3.83
2019-05-30T23:00:47.810Z,3.33
2019-05-30T23:03:52.630Z,2.80
2019-05-30T23:06:58.141Z,3.10
2019-05-30T23:10:02.537Z,3.75
2019-05-30T23:13:06.837Z,2.95
2019-05-30T23:16:11.065Z,4.22
2019-05-30T23:19:15.438Z,2.55
2019-05-30T23:22:19.732Z,3.17
2019-05-30T23:25:24.053Z,3.95
2019-05-30T23:28:28.511Z,3.90
2019-05-30T23:31:32.783Z,5.62
2019-05-30T23:34:37.000Z,2.52
2019-05-30T23:37:41.564Z,2.77
2019-05-30T23:40:45.771Z,3.80
2019-05-30T23:43:58.021Z,3.12
2019-05-30T23:46:57.735Z,7.97
2019-05-30T23:50:01.961Z,3.80
2019-05-30T23:53:06.231Z,3.35
2019-05-30T23:56:10.472Z,4.33
2019-05-30T23:59:14.676Z,3.85
